Time;durP1;ratioP1;P1;durP2;ratioP2;P2;SDS_P1;SDS_P2;PMS_P1;PMS_P2;Temp;Humidity;BMP_temperature;BMP_pressure;BME280_temperature;BME280_humidity;BME280_pressure;Samples;Min_cycle;Max_cycle;Signal;HPM_P1;HPM_P2
2022/05/03 00:00:53;;;;;;;15.70;12.02;;;5.00;99.90;;;;;;5018418;28;20099;-90
2022/05/03 00:03:27;;;;;;;14.60;11.85;;;5.00;99.90;;;;;;5023893;28;20248;-90
2022/05/03 00:06:04;;;;;;;14.90;11.70;;;4.90;1.00;;;;;;5035160;28;20111;-91
2022/05/03 00:08:45;;;;;;;16.10;11.27;;;4.90;99.90;;;;;;5032987;28;20042;-90
2022/05/03 00:11:40;;;;;;;16.38;12.35;;;4.80;99.90;;;;;;5019084;28;20036;-89
2022/05/03 00:14:30;;;;;;;15.93;11.90;;;4.80;99.90;;;;;;5043452;28;20182;-90
2022/05/03 00:16:56;;;;;;;15.60;11.23;;;4.80;99.90;;;;;;5021486;28;20052;-91
2022/05/03 00:19:26;;;;;;;15.82;12.00;;;4.70;99.90;;;;;;5017246;28;20048;-92
2022/05/03 00:21:52;;;;;;;14.98;11.32;;;4.70;99.90;;;;;;5021619;28;20072;-90
2022/05/03 00:24:19;;;;;;;16.17;11.73;;;4.60;99.90;;;;;;5020619;28;20075;-91
2022/05/03 00:26:45;;;;;;;13.68;10.63;;;4.60;99.90;;;;;;5016741;28;20037;-91
2022/05/03 00:29:11;;;;;;;15.20;11.05;;;4.50;99.90;;;;;;5018130;28;20034;-91
2022/05/03 00:31:37;;;;;;;14.73;10.75;;;4.50;99.90;;;;;;5017559;28;20041;-91
2022/05/03 00:34:06;;;;;;;14.50;11.10;;;4.40;99.90;;;;;;5025407;28;20040;-91
2022/05/03 00:36:32;;;;;;;14.02;10.80;;;4.40;99.90;;;;;;5018374;28;20511;-91
2022/05/03 00:38:57;;;;;;;12.85;10.68;;;4.30;99.90;;;;;;5014088;28;20541;-90
2022/05/03 00:41:46;;;;;;;16.23;9.40;;;4.30;99.90;;;;;;5036956;28;20403;-90
2022/05/03 00:47:27;;;;;;;13.38;10.05;;;3.90;99.90;;;;;;5034689;28;20037;-90
2022/05/03 00:50:08;;;;;;;13.77;9.87;;;3.90;99.90;;;;;;5021599;28;20045;-90
2022/05/03 00:52:45;;;;;;;12.98;9.00;;;3.90;99.90;;;;;;5017358;28;20095;-90
2022/05/03 00:55:46;;;;;;;11.85;9.43;;;3.80;99.90;;;;;;5051036;28;20045;-92
2022/05/03 00:58:33;;;;;;;15.65;10.48;;;3.80;99.90;;;;;;4991350;28;20119;-90
2022/05/03 01:01:21;;;;;;;16.75;12.30;;;3.90;99.90;;;;;;5034739;28;20069;-90
2022/05/03 01:03:55;;;;;;;15.32;11.82;;;3.90;99.90;;;;;;5018047;28;20037;-91
2022/05/03 01:06:42;;;;;;;24.17;14.85;;;4.00;1.00;;;;;;5021310;28;20313;-90
2022/05/03 01:09:09;;;;;;;23.55;14.63;;;4.00;1.00;;;;;;5018572;28;20042;-90
2022/05/03 01:12:14;;;;;;;17.75;13.00;;;4.10;1.00;;;;;;5018730;28;20044;-90
2022/05/03 01:14:50;;;;;;;18.98;13.30;;;4.20;13.50;;;;;;5051431;28;20222;-91
2022/05/03 01:17:40;;;;;;;23.75;15.13;;;4.20;89.00;;;;;;5032072;28;20144;-89
2022/05/03 01:20:08;;;;;;;18.25;13.60;;;4.10;99.90;;;;;;5033699;28;20187;-90
2022/05/03 01:23:11;;;;;;;18.15;12.65;;;4.10;99.90;;;;;;5032941;28;20056;-92
2022/05/03 01:26:08;;;;;;;19.52;14.27;;;4.10;69.20;;;;;;5020464;28;20440;-89
2022/05/03 01:28:52;;;;;;;21.48;14.35;;;4.20;99.90;;;;;;5022928;28;20047;-90
2022/05/03 01:31:20;;;;;;;20.13;14.43;;;4.20;99.90;;;;;;5021019;28;22118;-89
2022/05/03 01:33:46;;;;;;;17.20;13.52;;;4.10;99.90;;;;;;5014272;28;20068;-91
2022/05/03 01:36:22;;;;;;;20.27;14.35;;;4.10;99.90;;;;;;5015992;28;20065;-90
2022/05/03 01:39:26;;;;;;;15.88;12.90;;;4.10;99.90;;;;;;5035965;28;20076;-90
2022/05/03 01:41:57;;;;;;;19.23;14.05;;;4.00;72.30;;;;;;5033939;28;20429;-91
2022/05/03 01:44:52;;;;;;;17.35;12.80;;;4.00;67.00;;;;;;5023271;28;20136;-90
2022/05/03 01:47:25;;;;;;;17.05;12.90;;;3.90;66.40;;;;;;5011806;28;20037;-91
2022/05/03 01:50:20;;;;;;;17.45;12.60;;;4.10;99.90;;;;;;5016266;28;20040;-90
2022/05/03 01:52:51;;;;;;;16.83;13.55;;;4.00;98.40;;;;;;5012658;28;20122;-90
2022/05/03 01:55:50;;;;;;;23.60;13.52;;;4.00;99.90;;;;;;5014209;28;20033;-91
2022/05/03 01:58:50;;;;;;;22.00;16.13;;;3.90;99.90;;;;;;5018463;28;20270;-91
2022/05/03 02:01:53;;;;;;;19.45;13.15;;;4.10;99.90;;;;;;5018062;28;20119;-90
2022/05/03 02:04:37;;;;;;;19.85;12.80;;;4.00;99.90;;;;;;4985391;28;20034;-90
2022/05/03 02:07:21;;;;;;;15.95;11.38;;;3.80;99.90;;;;;;5017460;28;20592;-91
2022/05/03 02:09:59;;;;;;;14.25;9.98;;;3.50;1.00;;;;;;5015134;28;20102;-90
2022/05/03 02:12:25;;;;;;;15.18;11.45;;;3.50;4.10;;;;;;5019500;28;20141;-90
2022/05/03 02:14:56;;;;;;;13.60;10.00;;;3.50;2.60;;;;;;5023113;28;20489;-91
2022/05/03 02:17:43;;;;;;;13.57;10.43;;;3.40;1.00;;;;;;5019884;28;20223;-90
2022/05/03 02:20:28;;;;;;;9.50;8.35;;;3.40;1.00;;;;;;5016909;28;20064;-90
2022/05/03 02:23:05;;;;;;;9.27;7.90;;;3.30;1.00;;;;;;5019380;28;20037;-91
2022/05/03 02:25:42;;;;;;;11.13;8.65;;;3.20;1.00;;;;;;5027011;28;20048;-92
2022/05/03 02:28:17;;;;;;;10.25;8.27;;;3.10;1.00;;;;;;5020842;28;20037;-91
2022/05/03 02:30:47;;;;;;;12.80;10.45;;;3.10;1.00;;;;;;5033836;28;20041;-93
2022/05/03 02:33:42;;;;;;;15.80;11.98;;;3.20;1.00;;;;;;5017857;28;20136;-90
2022/05/03 02:36:16;;;;;;;17.85;12.32;;;3.10;1.00;;;;;;5030125;28;20029;-91
2022/05/03 02:39:09;;;;;;;18.17;13.88;;;3.20;1.00;;;;;;5028061;28;20424;-90
2022/05/03 02:41:38;;;;;;;18.52;13.80;;;3.30;68.00;;;;;;5016050;28;20044;-90
2022/05/03 02:44:05;;;;;;;17.33;12.80;;;3.30;26.40;;;;;;5032897;28;20048;-90
2022/05/03 02:46:58;;;;;;;21.75;13.85;;;3.30;42.80;;;;;;5037784;28;20045;-89
2022/05/03 02:49:53;;;;;;;17.10;13.48;;;3.30;85.90;;;;;;5010960;28;20164;-89
2022/05/03 02:52:36;;;;;;;24.38;15.23;;;3.40;99.90;;;;;;5016272;28;20413;-90
2022/05/03 02:55:08;;;;;;;23.13;14.98;;;3.40;99.90;;;;;;5018503;28;20282;-90
2022/05/03 02:57:44;;;;;;;22.30;15.00;;;3.40;99.90;;;;;;5014194;28;20059;-90
2022/05/03 03:03:31;;;;;;;18.45;14.82;;;3.50;99.90;;;;;;5033361;28;20138;-92
2022/05/03 03:06:01;;;;;;;25.63;15.75;;;3.60;99.90;;;;;;5014725;28;20477;-90
2022/05/03 03:08:35;;;;;;;22.60;16.98;;;3.70;99.90;;;;;;5032503;28;20041;-91
2022/05/03 03:11:03;;;;;;;23.33;18.25;;;3.80;99.90;;;;;;5035086;28;20557;-90
2022/05/03 03:14:09;;;;;;;23.55;18.10;;;4.00;1.00;;;;;;5040742;28;20053;-91
2022/05/03 03:16:41;;;;;;;22.08;16.90;;;4.00;99.90;;;;;;5024019;28;20090;-91
2022/05/03 03:19:37;;;;;;;22.02;15.20;;;4.10;99.90;;;;;;5023716;28;20049;-90
2022/05/03 03:22:11;;;;;;;22.48;16.63;;;4.00;99.90;;;;;;5019237;28;20040;-90
2022/05/03 03:24:38;;;;;;;24.10;17.67;;;4.30;99.90;;;;;;5023207;28;20049;-90
2022/05/03 03:27:05;;;;;;;21.58;16.63;;;4.30;99.90;;;;;;5024742;28;20478;-91
2022/05/03 03:29:32;;;;;;;24.33;17.65;;;4.40;99.90;;;;;;5037851;28;20060;-91
2022/05/03 03:32:02;;;;;;;23.25;17.33;;;4.60;99.90;;;;;;5020299;28;20048;-91
2022/05/03 03:34:28;;;;;;;22.38;16.70;;;4.70;99.90;;;;;;5018456;28;20108;-90
2022/05/03 03:37:01;;;;;;;18.95;14.40;;;4.70;99.90;;;;;;5020587;28;20044;-90
2022/05/03 03:39:31;;;;;;;20.17;15.98;;;4.70;99.90;;;;;;5022203;28;20087;-91
2022/05/03 03:42:05;;;;;;;23.38;16.55;;;4.80;99.90;;;;;;5034236;28;20494;-92
2022/05/03 03:44:31;;;;;;;20.38;16.08;;;4.90;99.90;;;;;;5025332;28;20032;-90
2022/05/03 03:47:02;;;;;;;22.95;17.15;;;4.90;99.90;;;;;;5020313;28;20053;-90
2022/05/03 03:49:29;;;;;;;18.63;14.45;;;4.90;99.90;;;;;;5025465;28;20120;-92
2022/05/03 03:51:59;;;;;;;22.60;14.82;;;4.80;88.60;;;;;;5016680;28;20049;-90
2022/05/03 03:54:26;;;;;;;21.90;16.60;;;4.80;78.60;;;;;;5025238;28;20037;-91
2022/05/03 03:56:53;;;;;;;24.60;17.85;;;4.80;99.90;;;;;;5021850;28;20045;-90
2022/05/03 03:59:19;;;;;;;26.17;19.33;;;4.90;99.90;;;;;;5038632;28;20131;-90
2022/05/03 04:01:48;;;;;;;23.10;18.80;;;5.00;99.90;;;;;;5041502;28;20041;-90
2022/05/03 04:04:17;;;;;;;29.35;19.05;;;5.10;99.90;;;;;;5025224;28;20045;-91
2022/05/03 04:06:43;;;;;;;23.42;18.25;;;5.20;99.90;;;;;;5027818;28;20123;-90
2022/05/03 04:09:09;;;;;;;24.45;18.02;;;5.20;99.90;;;;;;5020035;28;20067;-90
2022/05/03 04:11:45;;;;;;;23.05;17.35;;;5.30;99.90;;;;;;5020514;28;20045;-92
2022/05/03 04:14:12;;;;;;;22.90;18.48;;;5.30;99.90;;;;;;5021223;28;20030;-90
2022/05/03 04:16:38;;;;;;;23.08;17.20;;;5.40;99.90;;;;;;5021438;28;20040;-92
2022/05/03 04:19:04;;;;;;;25.65;16.10;;;5.50;99.90;;;;;;5036152;28;20045;-90
2022/05/03 04:21:30;;;;;;;24.80;18.95;;;5.50;99.90;;;;;;5019550;28;20536;-91
2022/05/03 04:23:59;;;;;;;23.33;18.80;;;5.60;99.90;;;;;;5038258;28;20033;-90
2022/05/03 04:26:25;;;;;;;21.20;17.00;;;5.70;99.90;;;;;;5015096;28;20043;-92
2022/05/03 04:28:59;;;;;;;23.67;18.13;;;5.70;99.90;;;;;;5024715;28;20575;-91
2022/05/03 04:31:29;;;;;;;23.95;17.25;;;5.80;99.90;;;;;;5037868;28;20380;-90
2022/05/03 04:33:55;;;;;;;24.35;18.08;;;5.90;99.90;;;;;;5025115;28;20037;-90
2022/05/03 04:36:21;;;;;;;26.27;19.60;;;6.00;99.90;;;;;;5021054;28;20358;-90
2022/05/03 04:38:50;;;;;;;26.92;20.15;;;6.10;99.90;;;;;;5019952;28;20175;-90
2022/05/03 04:41:23;;;;;;;22.85;18.40;;;6.10;99.90;;;;;;5032439;28;20030;-89
2022/05/03 04:43:49;;;;;;;26.95;20.38;;;6.20;99.90;;;;;;5026806;28;20040;-90
2022/05/03 04:46:15;;;;;;;28.77;20.27;;;6.30;99.90;;;;;;5031452;28;20037;-92
2022/05/03 04:48:42;;;;;;;31.90;20.25;;;6.40;99.90;;;;;;5024898;28;20025;-90
2022/05/03 04:51:18;;;;;;;32.13;21.42;;;6.50;99.90;;;;;;5020041;28;20121;-92
2022/05/03 04:53:44;;;;;;;28.65;21.02;;;6.60;99.90;;;;;;5022811;28;20092;-91
2022/05/03 04:56:18;;;;;;;29.77;21.05;;;6.60;99.90;;;;;;5018208;28;20407;-92
2022/05/03 04:58:44;;;;;;;31.77;23.20;;;6.70;99.90;;;;;;5016673;28;20474;-91
2022/05/03 05:01:11;;;;;;;29.33;21.27;;;6.80;99.90;;;;;;5024919;28;20051;-91
2022/05/03 05:03:38;;;;;;;30.33;22.70;;;6.80;99.90;;;;;;5019485;28;20073;-91
2022/05/03 05:06:07;;;;;;;34.25;24.77;;;6.90;99.90;;;;;;5016742;28;20040;-91
2022/05/03 05:08:33;;;;;;;31.92;22.05;;;7.00;99.90;;;;;;5021576;28;20076;-91
2022/05/03 05:10:59;;;;;;;31.67;22.38;;;7.00;99.90;;;;;;5018942;28;20052;-92
2022/05/03 05:13:25;;;;;;;34.80;24.70;;;7.10;99.90;;;;;;5038457;28;20124;-91
2022/05/03 05:15:51;;;;;;;28.48;21.88;;;7.10;99.90;;;;;;5015344;28;20029;-92
2022/05/03 05:18:16;;;;;;;29.23;22.60;;;7.20;99.90;;;;;;5039104;28;20093;-91
2022/05/03 05:20:43;;;;;;;29.50;23.10;;;7.30;99.90;;;;;;5034260;28;20044;-91
2022/05/03 05:23:09;;;;;;;32.17;23.00;;;7.30;99.90;;;;;;5014115;28;20076;-91
2022/05/03 05:25:34;;;;;;;30.10;22.27;;;7.40;99.90;;;;;;5039391;28;20161;-91
2022/05/03 05:28:01;;;;;;;28.67;22.85;;;7.50;99.90;;;;;;5029363;28;20403;-90
2022/05/03 05:30:27;;;;;;;30.70;23.65;;;7.50;90.60;;;;;;5054393;28;20081;-93
2022/05/03 05:32:53;;;;;;;36.03;23.02;;;7.60;99.40;;;;;;5017755;28;20033;-90
2022/05/03 05:35:19;;;;;;;30.60;23.13;;;7.70;99.90;;;;;;5016269;28;20040;-91
2022/05/03 05:37:45;;;;;;;30.52;23.48;;;7.70;68.90;;;;;;5033423;28;20034;-92
2022/05/03 05:40:11;;;;;;;32.08;21.88;;;7.80;46.00;;;;;;5023416;28;20505;-92
2022/05/03 05:42:37;;;;;;;30.08;22.83;;;7.80;52.20;;;;;;5017174;28;20496;-92
2022/05/03 05:45:03;;;;;;;30.38;22.65;;;7.90;99.90;;;;;;5037849;28;20112;-92
2022/05/03 05:47:29;;;;;;;36.45;25.50;;;7.90;99.90;;;;;;5020382;28;20061;-91
2022/05/03 05:49:55;;;;;;;34.45;24.10;;;7.90;99.90;;;;;;5015680;28;20114;-92
2022/05/03 05:55:06;;;;;;;32.40;23.67;;;8.00;99.90;;;;;;5032792;28;20041;-92
2022/05/03 05:57:34;;;;;;;37.25;24.70;;;8.00;99.90;;;;;;5034827;28;20071;-94
2022/05/03 06:00:03;;;;;;;34.58;24.45;;;8.00;99.90;;;;;;5022247;28;20040;-91
2022/05/03 06:02:28;;;;;;;35.75;23.65;;;8.00;99.90;;;;;;5018736;28;20045;-92
2022/05/03 06:04:54;;;;;;;37.15;25.35;;;8.10;99.90;;;;;;5033387;28;20067;-92
2022/05/03 06:07:20;;;;;;;35.58;24.70;;;8.20;99.90;;;;;;5021457;28;20052;-90
2022/05/03 06:09:45;;;;;;;34.90;23.98;;;8.20;69.30;;;;;;5040560;28;20509;-91
2022/05/03 06:12:11;;;;;;;31.38;23.45;;;8.30;33.10;;;;;;5040222;28;20033;-91
2022/05/03 06:14:37;;;;;;;36.60;25.30;;;8.30;12.20;;;;;;5040150;28;20046;-92
2022/05/03 06:17:03;;;;;;;37.85;25.95;;;8.40;49.10;;;;;;5018524;28;20036;-91
2022/05/03 06:19:29;;;;;;;37.30;25.48;;;8.40;28.60;;;;;;5036453;28;20050;-91
2022/05/03 06:21:54;;;;;;;34.67;26.48;;;8.50;43.30;;;;;;5034738;28;20427;-91
2022/05/03 06:24:20;;;;;;;37.72;27.23;;;8.50;69.90;;;;;;5040673;28;20118;-93
2022/05/03 06:26:46;;;;;;;39.40;27.52;;;8.60;99.90;;;;;;5013666;28;20348;-93
2022/05/03 06:29:12;;;;;;;37.83;26.13;;;8.70;99.90;;;;;;5022611;28;20957;-92
2022/05/03 06:31:39;;;;;;;41.35;27.75;;;8.60;99.90;;;;;;5027965;28;20463;-92
2022/05/03 06:34:06;;;;;;;45.47;28.27;;;8.70;99.90;;;;;;5020272;28;20049;-92
2022/05/03 06:36:36;;;;;;;40.60;27.17;;;8.70;99.90;;;;;;5014512;28;20048;-93
2022/05/03 06:39:08;;;;;;;42.72;28.55;;;8.70;99.90;;;;;;5029427;28;20462;-92
2022/05/03 06:41:34;;;;;;;43.63;29.77;;;8.80;99.90;;;;;;5022987;28;20041;-92
2022/05/03 06:44:00;;;;;;;44.20;30.13;;;8.80;99.90;;;;;;5022766;28;20401;-94
2022/05/03 06:46:29;;;;;;;46.35;31.02;;;8.80;1.00;;;;;;5028313;28;20245;-93
2022/05/03 06:48:55;;;;;;;45.25;31.25;;;8.80;1.00;;;;;;5023733;28;20139;-94
2022/05/03 06:51:27;;;;;;;45.55;31.02;;;8.80;1.00;;;;;;5025895;28;20033;-94
2022/05/03 06:53:54;;;;;;;47.95;30.98;;;8.90;29.00;;;;;;5025870;28;20504;-93
2022/05/03 06:56:20;;;;;;;47.35;29.27;;;9.00;77.20;;;;;;5029145;28;20164;-92
2022/05/03 06:58:45;;;;;;;50.03;28.73;;;8.90;99.90;;;;;;5024950;28;20256;-92
2022/05/03 07:01:16;;;;;;;44.90;27.42;;;9.00;99.90;;;;;;5027003;28;20042;-93
2022/05/03 07:03:43;;;;;;;47.08;28.00;;;9.00;99.90;;;;;;5028013;28;20041;-94
2022/05/03 07:06:09;;;;;;;36.28;19.27;;;9.10;99.90;;;;;;5022900;28;20132;-92
2022/05/03 07:08:36;;;;;;;27.73;14.13;;;9.20;99.90;;;;;;5037986;28;20071;-91
2022/05/03 07:11:02;;;;;;;28.40;10.73;;;9.20;99.90;;;;;;5021799;28;20041;-93
2022/05/03 07:13:28;;;;;;;26.17;12.48;;;9.20;99.90;;;;;;5024227;28;20111;-93
2022/05/03 07:15:59;;;;;;;15.38;7.88;;;9.30;99.90;;;;;;5025228;28;20045;-93
2022/05/03 07:23:54;;;;;;;17.40;7.38;;;9.30;1.00;;;;;;5036779;28;20037;-92
2022/05/03 07:26:23;;;;;;;18.38;6.72;;;9.20;1.00;;;;;;5026874;28;20044;-93
2022/05/03 07:28:49;;;;;;;17.45;7.40;;;9.30;12.70;;;;;;5020447;28;20707;-92
2022/05/03 07:31:16;;;;;;;14.88;7.18;;;9.40;1.00;;;;;;5031510;28;20072;-94
2022/05/03 07:33:42;;;;;;;18.98;8.20;;;9.30;99.90;;;;;;5019396;28;20033;-92
2022/05/03 07:36:08;;;;;;;19.15;7.55;;;9.50;1.00;;;;;;5021484;28;20471;-92
2022/05/03 07:38:34;;;;;;;18.45;6.82;;;9.40;99.90;;;;;;5033220;28;20052;-93
2022/05/03 07:41:02;;;;;;;12.95;6.45;;;9.60;99.90;;;;;;5021719;28;20391;-92
2022/05/03 07:43:29;;;;;;;13.63;6.13;;;9.70;99.90;;;;;;5028618;28;20055;-92
2022/05/03 07:45:54;;;;;;;17.55;7.32;;;9.60;99.90;;;;;;5059550;28;20051;-92
2022/05/03 07:48:21;;;;;;;15.95;6.78;;;9.70;99.90;;;;;;5020096;28;20036;-90
2022/05/03 07:50:47;;;;;;;15.38;6.03;;;9.80;99.90;;;;;;5024786;28;20052;-91
2022/05/03 07:53:13;;;;;;;16.52;6.80;;;9.90;99.90;;;;;;5028589;28;20397;-91
2022/05/03 07:55:39;;;;;;;16.83;7.10;;;9.70;96.50;;;;;;5037227;28;20354;-92
2022/05/03 07:58:05;;;;;;;21.38;6.85;;;10.00;1.00;;;;;;5020967;28;20029;-92
2022/05/03 08:00:31;;;;;;;20.23;6.82;;;10.10;1.00;;;;;;5024298;28;20033;-93
2022/05/03 08:02:57;;;;;;;20.65;6.93;;;10.20;1.00;;;;;;5021252;28;20052;-92
2022/05/03 08:05:23;;;;;;;23.00;7.25;;;10.00;99.90;;;;;;5021355;28;20044;-92
2022/05/03 08:07:50;;;;;;;16.13;6.32;;;10.10;99.90;;;;;;5023569;28;20481;-94
2022/05/03 08:10:19;;;;;;;23.17;6.97;;;10.10;99.90;;;;;;5035866;28;20119;-93
2022/05/03 08:12:51;;;;;;;17.48;5.90;;;10.10;99.90;;;;;;5022850;28;20120;-93
2022/05/03 08:15:20;;;;;;;18.65;5.93;;;10.20;99.90;;;;;;5024133;28;20147;-92
2022/05/03 08:17:46;;;;;;;16.85;5.75;;;10.30;99.90;;;;;;5024285;28;20037;-92
2022/05/03 08:20:19;;;;;;;21.45;6.25;;;10.40;99.90;;;;;;5041812;28;20049;-93
2022/05/03 08:22:48;;;;;;;20.80;6.43;;;10.20;99.90;;;;;;5021581;28;20053;-93
2022/05/03 08:25:25;;;;;;;24.45;6.95;;;10.30;99.90;;;;;;5026049;28;20038;-93
2022/05/03 08:27:53;;;;;;;19.42;5.57;;;10.20;99.90;;;;;;5022497;28;20057;-93
2022/05/03 08:30:19;;;;;;;18.70;5.20;;;10.20;99.90;;;;;;5026387;28;20116;-94
2022/05/03 08:32:45;;;;;;;20.70;6.10;;;10.40;99.90;;;;;;5026440;28;20050;-93
2022/05/03 08:35:14;;;;;;;17.38;5.85;;;10.30;99.90;;;;;;5024309;28;20115;-93
2022/05/03 08:43:15;;;;;;;16.90;5.00;;;10.20;99.90;;;;;;5035374;28;20745;-94
2022/05/03 08:46:11;;;;;;;16.98;5.38;;;10.30;99.90;;;;;;5022818;28;20056;-93
2022/05/03 08:48:41;;;;;;;19.33;5.90;;;10.20;99.90;;;;;;5025113;28;20147;-93
2022/05/03 08:51:13;;;;;;;16.52;5.63;;;10.20;99.90;;;;;;5023900;28;20519;-92
2022/05/03 08:53:40;;;;;;;19.35;5.97;;;10.10;99.90;;;;;;5021657;28;20076;-93
2022/05/03 08:56:20;;;;;;;19.90;5.40;;;10.30;99.90;;;;;;5025193;28;20029;-93
2022/05/03 08:58:46;;;;;;;21.45;5.65;;;10.40;95.90;;;;;;5019986;28;20045;-92
2022/05/03 09:01:15;;;;;;;16.55;5.60;;;10.30;99.90;;;;;;5023502;28;20188;-93
2022/05/03 09:03:41;;;;;;;14.82;4.82;;;10.50;99.90;;;;;;5023011;28;20041;-93
2022/05/03 09:06:07;;;;;;;19.83;5.75;;;10.20;14.10;;;;;;5019547;28;20047;-92
2022/05/03 09:08:34;;;;;;;13.60;4.90;;;10.40;24.70;;;;;;5022158;28;20868;-93
2022/05/03 09:11:15;;;;;;;17.15;4.80;;;10.40;92.30;;;;;;5025123;28;20334;-94
2022/05/03 09:13:47;;;;;;;16.65;5.10;;;10.60;1.00;;;;;;5022536;28;20356;-92
2022/05/03 09:16:14;;;;;;;15.07;4.63;;;10.70;1.00;;;;;;5026652;28;20425;-92
2022/05/03 09:18:41;;;;;;;17.05;4.47;;;10.90;1.00;;;;;;5033425;28;20089;-93
2022/05/03 09:24:05;;;;;;;14.38;5.07;;;11.00;1.00;;;;;;5054354;28;20106;-92
2022/05/03 09:26:31;;;;;;;17.42;4.55;;;11.10;1.00;;;;;;5020963;28;20164;-92
2022/05/03 09:29:08;;;;;;;12.70;4.72;;;11.30;1.00;;;;;;5023353;28;20045;-92
2022/05/03 09:31:39;;;;;;;12.20;3.70;;;11.20;1.00;;;;;;5025897;28;20104;-94
2022/05/03 09:34:19;;;;;;;16.90;4.55;;;11.40;1.00;;;;;;5017691;28;20037;-92
2022/05/03 09:36:50;;;;;;;14.70;4.50;;;10.80;1.00;;;;;;5032436;28;20392;-91
2022/05/03 09:39:30;;;;;;;13.80;4.43;;;10.90;1.00;;;;;;5022438;28;20072;-94
2022/05/03 09:42:03;;;;;;;15.82;4.40;;;11.00;1.00;;;;;;5017800;28;20048;-90
2022/05/03 09:44:50;;;;;;;14.80;3.97;;;11.00;99.90;;;;;;5034074;28;20325;-93
2022/05/03 09:47:16;;;;;;;12.18;3.97;;;11.30;1.00;;;;;;5024991;28;20049;-92
2022/05/03 09:49:42;;;;;;;15.68;4.70;;;11.70;99.90;;;;;;5018585;28;20043;-92
2022/05/03 09:52:21;;;;;;;15.98;4.85;;;12.10;99.90;;;;;;5018276;28;20124;-93
2022/05/03 09:54:48;;;;;;;17.42;4.28;;;11.40;99.90;;;;;;5042343;28;20111;-92
2022/05/03 09:57:28;;;;;;;14.27;4.65;;;11.80;1.00;;;;;;5024032;28;20044;-92
2022/05/03 10:00:03;;;;;;;17.85;4.50;;;11.50;99.90;;;;;;5017151;28;20128;-91
2022/05/03 10:02:30;;;;;;;15.02;4.65;;;11.70;1.00;;;;;;5022318;28;20048;-91
2022/05/03 10:04:59;;;;;;;12.45;4.00;;;11.90;1.00;;;;;;5023168;28;20055;-91
2022/05/03 10:07:29;;;;;;;11.98;4.20;;;12.10;99.90;;;;;;5023658;28;20132;-91
2022/05/03 10:20:46;;;;;;;14.10;3.72;;;12.00;99.90;;;;;;4900081;28;20052;-91
2022/05/03 10:23:28;;;;;;;12.18;3.67;;;12.80;99.90;;;;;;4936398;28;20082;-91
2022/05/03 10:26:08;;;;;;;17.67;4.15;;;12.50;99.90;;;;;;5019757;28;20094;-92
2022/05/03 10:29:06;;;;;;;13.30;3.63;;;12.80;99.90;;;;;;5020167;28;20197;-92
2022/05/03 10:32:14;;;;;;;9.98;3.38;;;13.20;99.90;;;;;;5028204;28;20064;-93
2022/05/03 10:34:48;;;;;;;12.25;3.60;;;13.40;99.90;;;;;;5037546;28;20103;-91
2022/05/03 10:37:38;;;;;;;8.02;3.60;;;13.20;99.90;;;;;;5025367;28;20101;-93
2022/05/03 10:40:11;;;;;;;9.27;3.35;;;12.90;99.90;;;;;;5029121;28;20037;-91
2022/05/03 10:42:41;;;;;;;8.75;3.20;;;12.80;99.90;;;;;;5026411;28;20052;-92
2022/05/03 10:45:12;;;;;;;10.00;3.00;;;12.20;99.90;;;;;;5027650;28;20557;-92
2022/05/03 10:47:54;;;;;;;8.82;3.28;;;12.10;99.90;;;;;;5029475;28;20362;-92
2022/05/03 10:50:29;;;;;;;10.93;2.90;;;12.80;99.90;;;;;;5019148;28;20120;-92
2022/05/03 10:52:55;;;;;;;8.85;3.30;;;12.70;99.90;;;;;;5038557;28;20049;-91
2022/05/03 10:55:22;;;;;;;9.48;3.10;;;13.30;99.90;;;;;;5028661;28;20045;-91
2022/05/03 10:58:20;;;;;;;9.57;3.20;;;13.30;99.90;;;;;;5036891;28;20041;-91
2022/05/03 11:01:12;;;;;;;13.48;3.47;;;12.50;99.90;;;;;;5030308;28;20041;-91
2022/05/03 11:03:57;;;;;;;8.95;3.00;;;12.60;99.90;;;;;;5024688;28;20052;-93
2022/05/03 11:06:23;;;;;;;9.48;2.80;;;13.20;99.90;;;;;;5028645;28;20128;-92
2022/05/03 11:08:59;;;;;;;7.93;3.08;;;12.90;99.90;;;;;;5028637;28;20051;-92
2022/05/03 11:11:43;;;;;;;7.80;2.95;;;13.30;99.90;;;;;;5021510;28;20045;-91
2022/05/03 11:14:21;;;;;;;7.20;2.80;;;12.50;99.90;;;;;;5020529;28;20915;-90
2022/05/03 11:17:05;;;;;;;8.07;2.53;;;12.60;99.90;;;;;;5025608;28;20095;-93
2022/05/03 11:19:35;;;;;;;11.68;3.03;;;12.70;99.90;;;;;;5025248;28;20052;-90
2022/05/03 11:22:08;;;;;;;7.68;2.60;;;13.30;99.90;;;;;;5024963;28;20049;-91
2022/05/03 11:24:33;;;;;;;8.10;2.42;;;13.00;99.90;;;;;;5040660;28;20138;-91
2022/05/03 11:27:02;;;;;;;7.10;2.50;;;13.10;99.90;;;;;;5025937;28;20119;-91
2022/05/03 11:29:30;;;;;;;8.05;2.20;;;12.70;99.90;;;;;;5026511;28;20127;-92
2022/05/03 11:31:59;;;;;;;6.40;2.35;;;12.90;99.90;;;;;;5022540;28;20036;-93
2022/05/03 11:34:26;;;;;;;3.40;2.10;;;13.50;99.90;;;;;;5020469;28;20556;-91
2022/05/03 11:36:53;;;;;;;9.88;2.60;;;13.50;99.90;;;;;;5022595;28;20048;-91
2022/05/03 11:39:20;;;;;;;6.55;2.30;;;13.80;99.90;;;;;;5025042;28;20059;-92
2022/05/03 11:41:47;;;;;;;9.48;2.53;;;13.40;99.90;;;;;;5019179;28;20065;-92
2022/05/03 11:44:14;;;;;;;8.40;2.50;;;12.90;99.90;;;;;;5015030;28;20087;-93
2022/05/03 11:46:42;;;;;;;6.35;2.10;;;13.60;99.90;;;;;;5021939;28;20068;-90
2022/05/03 11:49:10;;;;;;;6.95;2.40;;;13.00;99.90;;;;;;5038310;28;20479;-90
2022/05/03 11:57:22;;;;;;;10.38;2.58;;;13.30;99.90;;;;;;5035122;28;20107;-92
2022/05/03 11:59:50;;;;;;;12.30;2.58;;;13.60;99.90;;;;;;5038168;28;20186;-92
2022/05/03 12:02:18;;;;;;;7.00;2.30;;;13.70;99.90;;;;;;5023197;28;20144;-92
2022/05/03 12:05:06;;;;;;;10.43;2.55;;;14.10;99.90;;;;;;5016935;28;20064;-93
2022/05/03 12:07:42;;;;;;;7.55;2.60;;;13.50;99.90;;;;;;5020450;28;21972;-90
2022/05/03 12:10:24;;;;;;;6.50;2.10;;;12.90;99.90;;;;;;5034333;28;20436;-94
2022/05/03 12:13:09;;;;;;;5.03;2.38;;;12.80;99.90;;;;;;5024917;28;20030;-92
2022/05/03 12:15:39;;;;;;;6.85;2.40;;;13.30;99.90;;;;;;5034977;28;20049;-91
2022/05/03 12:18:11;;;;;;;6.35;2.30;;;13.40;99.90;;;;;;5025153;28;20044;-91
2022/05/03 12:20:43;;;;;;;6.45;2.30;;;13.90;99.90;;;;;;5033474;28;20474;-91
2022/05/03 12:23:13;;;;;;;9.82;2.85;;;13.60;99.90;;;;;;5023886;28;20036;-91
2022/05/03 12:25:41;;;;;;;7.43;2.30;;;13.20;99.90;;;;;;5019814;28;20658;-92
2022/05/03 12:28:07;;;;;;;5.40;2.28;;;13.50;99.90;;;;;;5018662;28;20045;-90
2022/05/03 12:30:34;;;;;;;6.07;2.60;;;13.20;99.90;;;;;;5021951;28;20513;-91
2022/05/03 12:33:05;;;;;;;6.32;2.72;;;13.10;99.90;;;;;;5018345;28;20072;-90
2022/05/03 12:35:36;;;;;;;6.63;2.55;;;13.20;99.90;;;;;;5024855;28;20139;-91
2022/05/03 12:38:10;;;;;;;7.05;2.10;;;13.20;99.90;;;;;;5021048;28;20029;-91
2022/05/03 12:40:56;;;;;;;8.00;2.67;;;12.90;99.90;;;;;;5035025;28;20143;-91
2022/05/03 12:43:23;;;;;;;8.23;2.25;;;13.30;99.90;;;;;;5018090;28;20041;-89
2022/05/03 12:46:08;;;;;;;8.30;2.70;;;13.70;99.90;;;;;;5018141;28;20052;-92
2022/05/03 12:48:37;;;;;;;6.80;2.57;;;14.00;99.90;;;;;;5019120;28;20211;-90
2022/05/03 12:51:04;;;;;;;7.35;2.50;;;14.70;99.90;;;;;;5017976;28;20079;-89
2022/05/03 12:53:35;;;;;;;7.60;2.78;;;14.20;99.90;;;;;;5019221;28;20128;-91
2022/05/03 12:58:47;;;;;;;10.23;2.60;;;13.10;99.90;;;;;;5037882;28;20048;-90
2022/05/03 13:01:14;;;;;;;10.63;2.42;;;13.00;99.90;;;;;;5023588;28;20485;-92
2022/05/03 13:03:41;;;;;;;7.43;2.90;;;12.80;99.90;;;;;;5032955;28;20041;-90
2022/05/03 13:06:07;;;;;;;5.57;2.00;;;13.00;99.90;;;;;;5019969;28;20104;-91
2022/05/03 13:08:33;;;;;;;5.60;2.50;;;12.80;99.90;;;;;;5019296;28;20159;-92
2022/05/03 13:10:59;;;;;;;6.22;2.40;;;12.90;99.90;;;;;;5017593;28;20041;-91
2022/05/03 13:13:32;;;;;;;7.28;2.67;;;13.00;99.90;;;;;;5024815;28;20383;-91
2022/05/03 13:16:00;;;;;;;7.68;2.47;;;13.30;99.90;;;;;;5014755;28;20410;-91
2022/05/03 13:18:27;;;;;;;8.05;2.50;;;13.20;99.90;;;;;;5020953;28;20057;-92
2022/05/03 13:20:55;;;;;;;6.72;2.42;;;13.60;99.90;;;;;;5027739;28;20642;-91
2022/05/03 13:23:21;;;;;;;9.52;2.63;;;13.10;99.90;;;;;;5024313;28;20489;-91
2022/05/03 13:25:47;;;;;;;9.98;2.60;;;12.60;99.90;;;;;;5020901;28;20040;-92
2022/05/03 13:28:15;;;;;;;9.15;2.70;;;12.40;99.90;;;;;;5025130;28;20065;-94
2022/05/03 13:30:44;;;;;;;12.68;2.95;;;12.50;99.90;;;;;;5020197;28;20040;-91
2022/05/03 13:33:10;;;;;;;9.45;2.50;;;12.40;99.90;;;;;;5025496;28;20182;-90
2022/05/03 13:41:45;;;;;;;12.13;3.03;;;13.40;99.90;;;;;;5037725;28;20115;-90
2022/05/03 13:44:19;;;;;;;11.07;3.03;;;13.30;99.90;;;;;;5018770;28;20033;-88
2022/05/03 13:47:18;;;;;;;9.40;2.38;;;13.50;99.90;;;;;;5022800;28;20056;-90
2022/05/03 13:50:01;;;;;;;8.60;2.65;;;13.00;99.90;;;;;;5016700;28;20032;-90
2022/05/03 13:52:46;;;;;;;9.27;2.47;;;13.20;99.90;;;;;;5049644;28;20033;-88
2022/05/03 13:55:21;;;;;;;9.63;2.50;;;13.50;99.90;;;;;;5032160;28;20033;-89